Time;durP1;ratioP1;P1;durP2;ratioP2;P2;SDS_P1;SDS_P2;PMS_P1;PMS_P2;Temp;Humidity;BMP_temperature;BMP_pressure;BME280_temperature;BME280_humidity;BME280_pressure;Samples;Min_cycle;Max_cycle;Signal;HPM_P1;HPM_P2
2022/10/25 00:01:23;;;;;;;8.87;4.13;;;12.80;99.90;;;;;;5073791;28;20245;-57
2022/10/25 00:03:53;;;;;;;10.67;3.97;;;12.90;99.90;;;;;;5075064;28;20245;-56
2022/10/25 00:06:22;;;;;;;10.40;3.40;;;12.80;99.90;;;;;;5073969;28;20223;-56
2022/10/25 00:08:50;;;;;;;9.63;3.47;;;12.80;99.90;;;;;;5073906;28;20230;-57
2022/10/25 00:11:20;;;;;;;8.93;3.90;;;12.80;99.90;;;;;;5073965;28;20226;-56
2022/10/25 00:13:49;;;;;;;8.63;3.77;;;12.80;99.90;;;;;;5073921;28;20234;-55
2022/10/25 00:16:20;;;;;;;11.23;3.57;;;12.80;99.90;;;;;;5070728;28;20692;-57
2022/10/25 00:18:48;;;;;;;9.23;3.30;;;12.80;99.90;;;;;;5073831;28;20253;-57
2022/10/25 00:21:18;;;;;;;9.73;3.90;;;12.80;99.90;;;;;;5078075;28;20243;-57
2022/10/25 00:23:46;;;;;;;8.27;3.57;;;12.80;99.90;;;;;;5076716;28;20231;-57
2022/10/25 00:26:14;;;;;;;8.63;4.00;;;12.80;99.90;;;;;;5073949;28;20288;-57
2022/10/25 00:28:42;;;;;;;7.87;3.53;;;12.80;99.90;;;;;;5073425;28;20222;-56
2022/10/25 00:31:12;;;;;;;10.37;4.40;;;12.80;99.90;;;;;;5073201;28;20238;-56
2022/10/25 00:33:41;;;;;;;10.33;4.20;;;12.90;99.90;;;;;;5073722;28;20226;-56
2022/10/25 00:36:11;;;;;;;11.67;4.00;;;12.90;99.90;;;;;;5076801;28;20242;-56
2022/10/25 00:38:41;;;;;;;9.60;4.00;;;12.90;99.90;;;;;;5073198;28;20230;-56
2022/10/25 00:41:11;;;;;;;8.70;4.10;;;12.90;99.90;;;;;;5073304;28;20227;-56
2022/10/25 00:43:41;;;;;;;10.73;4.20;;;12.90;99.90;;;;;;5073450;28;20216;-57
2022/10/25 00:46:13;;;;;;;7.70;3.70;;;12.90;99.90;;;;;;5073297;28;20219;-57
2022/10/25 00:48:45;;;;;;;6.60;4.00;;;12.90;99.90;;;;;;5073149;28;20267;-57
2022/10/25 00:51:13;;;;;;;13.53;5.33;;;13.00;99.90;;;;;;5077049;28;20233;-55
2022/10/25 00:53:43;;;;;;;7.30;4.33;;;13.00;99.90;;;;;;5076315;28;20229;-57
2022/10/25 00:56:16;;;;;;;10.63;4.30;;;13.00;99.90;;;;;;5073079;28;20230;-57
2022/10/25 00:58:47;;;;;;;9.83;4.33;;;13.00;99.90;;;;;;5073119;28;20253;-56
2022/10/25 01:01:15;;;;;;;10.73;4.30;;;13.00;99.90;;;;;;5072650;28;20242;-56
2022/10/25 01:03:46;;;;;;;9.90;4.40;;;13.00;99.90;;;;;;5073689;28;20632;-56
2022/10/25 01:06:20;;;;;;;11.13;4.50;;;13.00;99.90;;;;;;5065287;28;20226;-56
2022/10/25 01:08:51;;;;;;;8.37;3.93;;;13.00;99.90;;;;;;5072975;28;20245;-56
2022/10/25 01:11:20;;;;;;;12.33;3.97;;;13.00;99.90;;;;;;5072734;28;20230;-57
2022/10/25 01:13:49;;;;;;;10.17;3.70;;;13.00;99.90;;;;;;5072913;28;20245;-56
2022/10/25 01:16:26;;;;;;;6.80;4.03;;;13.00;99.90;;;;;;5072852;28;20252;-56
2022/10/25 01:18:59;;;;;;;7.77;4.03;;;13.00;99.90;;;;;;5072954;28;20713;-56
2022/10/25 01:21:44;;;;;;;11.50;3.83;;;13.10;99.90;;;;;;5078768;28;20225;-56
2022/10/25 01:24:48;;;;;;;10.63;4.27;;;13.10;99.90;;;;;;5052560;28;20235;-56
2022/10/25 01:27:45;;;;;;;11.03;3.80;;;13.10;99.90;;;;;;5052689;28;20223;-56
2022/10/25 01:30:18;;;;;;;9.20;4.23;;;13.10;99.90;;;;;;5052134;28;20253;-56
2022/10/25 01:32:56;;;;;;;9.07;4.07;;;13.20;99.90;;;;;;5052492;28;20234;-56
2022/10/25 01:35:28;;;;;;;10.47;4.00;;;13.20;99.90;;;;;;5067880;28;20585;-55
2022/10/25 01:38:08;;;;;;;8.10;3.93;;;13.20;99.90;;;;;;5072467;28;20241;-57
2022/10/25 01:40:47;;;;;;;8.33;4.30;;;13.30;99.90;;;;;;5072633;28;20781;-57
2022/10/25 01:43:26;;;;;;;9.13;3.90;;;13.20;99.90;;;;;;5072786;28;20705;-57
2022/10/25 01:46:00;;;;;;;8.63;4.20;;;13.20;99.90;;;;;;5072480;28;20234;-56
2022/10/25 01:48:33;;;;;;;14.57;4.73;;;13.20;99.90;;;;;;5072617;28;20230;-56
2022/10/25 01:51:09;;;;;;;9.43;4.53;;;13.20;99.90;;;;;;5080674;28;20216;-56
2022/10/25 01:53:48;;;;;;;10.33;4.30;;;13.10;99.90;;;;;;5087916;28;20225;-56
2022/10/25 01:56:24;;;;;;;10.73;4.50;;;13.10;99.90;;;;;;5092879;28;20237;-57
2022/10/25 01:59:18;;;;;;;10.50;4.53;;;13.10;99.90;;;;;;5092797;28;20279;-56
2022/10/25 02:02:00;;;;;;;10.00;4.80;;;13.20;99.90;;;;;;5091924;28;20245;-57
2022/10/25 02:04:47;;;;;;;15.23;5.90;;;13.20;99.90;;;;;;5086530;28;20231;-56
2022/10/25 02:07:23;;;;;;;10.57;5.00;;;13.10;99.90;;;;;;5066553;28;20225;-56
2022/10/25 02:10:00;;;;;;;11.27;5.80;;;13.20;99.90;;;;;;5056316;28;20624;-55
2022/10/25 02:12:36;;;;;;;12.30;6.23;;;13.20;99.90;;;;;;5056025;28;20238;-55
2022/10/25 02:15:09;;;;;;;11.37;5.50;;;13.20;99.90;;;;;;5056498;28;20594;-57
2022/10/25 02:17:42;;;;;;;13.57;6.10;;;13.20;99.90;;;;;;5056258;28;20238;-56
2022/10/25 02:20:15;;;;;;;12.13;5.97;;;13.30;99.90;;;;;;5070426;28;20240;-57
2022/10/25 02:22:43;;;;;;;12.53;6.13;;;13.30;99.90;;;;;;5087788;28;20699;-57
2022/10/25 02:25:13;;;;;;;12.23;6.60;;;13.30;99.90;;;;;;5096225;28;20227;-57
2022/10/25 02:27:43;;;;;;;11.87;6.80;;;13.30;99.90;;;;;;5096416;28;20680;-56
2022/10/25 02:30:12;;;;;;;12.43;6.90;;;13.30;99.90;;;;;;5096015;28;20566;-56
2022/10/25 02:32:40;;;;;;;10.10;6.90;;;13.30;99.90;;;;;;5095960;28;20230;-56
2022/10/25 02:35:15;;;;;;;12.50;6.90;;;13.30;99.90;;;;;;5083600;28;20220;-56
2022/10/25 02:37:43;;;;;;;11.40;6.80;;;13.30;99.90;;;;;;5075301;28;20253;-56
2022/10/25 02:40:12;;;;;;;14.23;7.57;;;13.30;99.90;;;;;;5075929;28;20250;-57
2022/10/25 02:42:40;;;;;;;15.40;7.80;;;13.40;99.90;;;;;;5076821;28;20229;-57
2022/10/25 02:45:09;;;;;;;12.23;8.10;;;13.40;99.90;;;;;;5095807;28;20328;-57
2022/10/25 02:47:37;;;;;;;10.97;7.30;;;13.40;99.90;;;;;;5095762;28;20293;-57
2022/10/25 02:50:06;;;;;;;15.60;8.03;;;13.40;99.90;;;;;;5095941;28;20224;-56
2022/10/25 02:52:35;;;;;;;12.80;7.77;;;13.40;99.90;;;;;;5087248;28;20296;-57
2022/10/25 02:55:04;;;;;;;11.57;7.77;;;13.40;99.90;;;;;;5096012;28;20234;-57
2022/10/25 02:57:33;;;;;;;15.20;8.50;;;13.40;99.90;;;;;;5095756;28;20233;-56
2022/10/25 03:00:01;;;;;;;14.53;7.67;;;13.30;99.90;;;;;;5095611;28;20732;-56
2022/10/25 03:02:30;;;;;;;16.40;8.87;;;13.40;99.90;;;;;;5094977;28;20242;-56
2022/10/25 03:04:58;;;;;;;12.10;8.07;;;13.40;99.90;;;;;;5084267;28;20237;-56
2022/10/25 03:07:26;;;;;;;12.10;7.97;;;13.40;99.90;;;;;;5074940;28;20218;-56
2022/10/25 03:09:56;;;;;;;13.40;8.43;;;13.40;99.90;;;;;;5075232;28;20212;-56
2022/10/25 03:12:24;;;;;;;12.50;8.80;;;13.40;99.90;;;;;;5075128;28;20230;-57
2022/10/25 03:14:52;;;;;;;14.63;9.43;;;13.40;99.90;;;;;;5075086;28;20609;-57
2022/10/25 03:17:20;;;;;;;15.53;9.00;;;13.40;99.90;;;;;;5074653;28;20683;-57
2022/10/25 03:19:48;;;;;;;16.17;9.57;;;13.40;99.90;;;;;;5075247;28;20227;-56
2022/10/25 03:22:16;;;;;;;14.57;9.00;;;13.40;99.90;;;;;;5086926;28;20229;-56
2022/10/25 03:24:44;;;;;;;16.17;9.60;;;13.40;99.90;;;;;;5095260;28;20698;-56
2022/10/25 03:27:13;;;;;;;15.40;9.37;;;13.40;99.90;;;;;;5095426;28;20643;-57
2022/10/25 03:29:41;;;;;;;17.47;9.63;;;13.40;99.90;;;;;;5094889;28;20264;-56
2022/10/25 03:32:09;;;;;;;16.57;9.83;;;13.40;99.90;;;;;;5094605;28;20434;-57
2022/10/25 03:34:37;;;;;;;18.87;10.20;;;13.40;99.90;;;;;;5086765;28;20285;-57
2022/10/25 03:37:05;;;;;;;17.20;9.43;;;13.40;99.90;;;;;;5074537;28;20247;-57
2022/10/25 03:39:33;;;;;;;13.63;9.07;;;13.40;99.90;;;;;;5074346;28;20233;-57
2022/10/25 03:42:01;;;;;;;16.87;10.17;;;13.40;99.90;;;;;;5074947;28;20689;-56
2022/10/25 03:44:30;;;;;;;17.80;9.83;;;13.40;99.90;;;;;;5074373;28;20716;-56
2022/10/25 03:46:58;;;;;;;14.00;9.57;;;13.40;99.90;;;;;;5074848;28;20238;-57
2022/10/25 03:49:26;;;;;;;14.83;9.00;;;13.40;99.90;;;;;;5074242;28;20222;-56
2022/10/25 03:51:54;;;;;;;13.43;9.47;;;13.40;99.90;;;;;;5084258;28;20566;-56
2022/10/25 03:54:28;;;;;;;13.67;9.30;;;13.40;99.90;;;;;;5094648;28;20230;-56
2022/10/25 03:56:56;;;;;;;15.67;9.90;;;13.40;99.90;;;;;;5094674;28;20221;-57
2022/10/25 03:59:24;;;;;;;15.57;9.87;;;13.40;99.90;;;;;;5094592;28;20238;-57
2022/10/25 04:01:54;;;;;;;13.63;9.93;;;13.40;99.90;;;;;;5094017;28;20709;-56
2022/10/25 04:04:22;;;;;;;16.37;10.23;;;13.30;99.90;;;;;;5088204;28;20288;-57
2022/10/25 04:06:50;;;;;;;13.37;10.17;;;13.40;99.90;;;;;;5073916;28;20230;-57
2022/10/25 04:09:18;;;;;;;13.40;10.10;;;13.40;99.90;;;;;;5074312;28;20566;-57
2022/10/25 04:11:46;;;;;;;15.00;9.77;;;13.40;99.90;;;;;;5067048;28;20253;-57
2022/10/25 04:14:14;;;;;;;15.53;10.17;;;13.40;99.90;;;;;;5054210;28;20587;-57
2022/10/25 04:16:42;;;;;;;14.43;10.20;;;13.40;99.90;;;;;;5054057;28;20276;-56
2022/10/25 04:19:12;;;;;;;19.00;10.60;;;13.40;99.90;;;;;;5056368;28;20239;-56
2022/10/25 04:21:40;;;;;;;16.27;10.30;;;13.50;99.90;;;;;;5081671;28;20231;-56
2022/10/25 04:24:08;;;;;;;19.23;9.80;;;13.40;99.90;;;;;;5093974;28;20230;-57
2022/10/25 04:26:36;;;;;;;14.03;9.63;;;13.50;99.90;;;;;;5093796;28;20225;-56
2022/10/25 04:29:05;;;;;;;14.80;10.13;;;13.50;99.90;;;;;;5093118;28;20229;-57
2022/10/25 04:31:34;;;;;;;15.07;10.50;;;13.50;99.90;;;;;;5093233;28;20270;-57
2022/10/25 04:34:02;;;;;;;18.43;10.80;;;13.50;99.90;;;;;;5090708;28;20247;-57
2022/10/25 04:36:31;;;;;;;17.10;10.37;;;13.50;99.90;;;;;;5073147;28;20763;-57
2022/10/25 04:38:59;;;;;;;16.37;10.13;;;13.40;99.90;;;;;;5073501;28;20273;-57
2022/10/25 04:41:27;;;;;;;17.37;10.30;;;13.50;99.90;;;;;;5073318;28;20250;-56
2022/10/25 04:43:55;;;;;;;13.83;9.63;;;13.50;99.90;;;;;;5073427;28;20241;-57
2022/10/25 04:46:24;;;;;;;15.37;9.93;;;13.50;99.90;;;;;;5073413;28;20590;-55
2022/10/25 04:48:52;;;;;;;17.07;9.97;;;13.50;99.90;;;;;;5073529;28;20759;-57
2022/10/25 04:51:19;;;;;;;15.97;9.97;;;13.50;99.90;;;;;;5076743;28;20669;-57
2022/10/25 04:53:49;;;;;;;14.47;10.00;;;13.40;99.90;;;;;;5090431;28;20234;-57
2022/10/25 04:56:17;;;;;;;14.90;10.10;;;13.50;99.90;;;;;;5093711;28;20666;-55
2022/10/25 04:58:45;;;;;;;17.17;10.90;;;13.40;99.90;;;;;;5093518;28;20644;-57
2022/10/25 05:01:16;;;;;;;14.27;11.10;;;13.40;99.90;;;;;;5092897;28;20597;-57
2022/10/25 05:03:45;;;;;;;18.17;11.03;;;13.40;99.90;;;;;;5092509;28;20230;-56
2022/10/25 05:06:15;;;;;;;15.90;10.57;;;13.40;99.90;;;;;;5073109;28;20230;-57
2022/10/25 05:08:46;;;;;;;20.73;12.20;;;13.40;99.90;;;;;;5072828;28;20681;-56
2022/10/25 05:11:17;;;;;;;18.87;11.90;;;13.40;99.90;;;;;;5073176;28;20682;-56
2022/10/25 05:13:46;;;;;;;18.10;11.27;;;13.40;99.90;;;;;;5073043;28;20287;-57
2022/10/25 05:16:19;;;;;;;18.07;12.13;;;13.30;99.90;;;;;;5072852;28;20638;-55
2022/10/25 05:18:48;;;;;;;15.67;11.70;;;13.40;99.90;;;;;;5072851;28;20686;-57
2022/10/25 05:21:17;;;;;;;16.37;11.67;;;13.40;99.90;;;;;;5080704;28;20234;-56
2022/10/25 05:23:46;;;;;;;18.93;12.70;;;13.40;99.90;;;;;;5089459;28;20257;-56
2022/10/25 05:26:17;;;;;;;16.90;11.93;;;13.40;99.90;;;;;;5093227;28;20287;-57
2022/10/25 05:28:47;;;;;;;16.90;12.60;;;13.40;99.90;;;;;;5092704;28;20229;-56
2022/10/25 05:31:17;;;;;;;21.40;13.17;;;13.40;99.90;;;;;;5092661;28;20229;-57
2022/10/25 05:33:46;;;;;;;18.40;13.27;;;13.40;99.90;;;;;;5091761;28;20255;-56
2022/10/25 05:36:15;;;;;;;18.20;12.90;;;13.40;99.90;;;;;;5072524;28;20249;-56
2022/10/25 05:38:43;;;;;;;17.20;12.83;;;13.40;99.90;;;;;;5072548;28;20627;-57
2022/10/25 05:41:12;;;;;;;21.20;14.80;;;13.40;99.90;;;;;;5072425;28;20230;-57
2022/10/25 05:43:43;;;;;;;18.57;13.20;;;13.40;99.90;;;;;;5072643;28;20233;-57
2022/10/25 05:46:12;;;;;;;20.30;13.27;;;13.30;99.90;;;;;;5072825;28;20701;-56
2022/10/25 05:48:41;;;;;;;19.07;13.97;;;13.40;99.90;;;;;;5072353;28;20234;-57
2022/10/25 05:51:19;;;;;;;16.77;12.90;;;13.30;99.90;;;;;;5080786;28;20225;-56
2022/10/25 05:54:04;;;;;;;21.60;13.53;;;13.40;99.90;;;;;;5091693;28;20222;-57
2022/10/25 05:56:33;;;;;;;22.73;13.60;;;13.30;99.90;;;;;;5092559;28;20237;-57
2022/10/25 05:59:08;;;;;;;17.67;13.30;;;13.30;99.90;;;;;;5092906;28;20227;-57
2022/10/25 06:01:38;;;;;;;19.80;13.67;;;13.30;99.90;;;;;;5091990;28;20260;-57
2022/10/25 06:04:07;;;;;;;25.07;14.50;;;13.30;99.90;;;;;;5088834;28;20258;-57
2022/10/25 06:06:35;;;;;;;18.60;13.87;;;13.30;99.90;;;;;;5072304;28;20582;-57
2022/10/25 06:09:04;;;;;;;16.73;13.57;;;13.40;99.90;;;;;;5072619;28;20244;-57
2022/10/25 06:11:33;;;;;;;17.83;14.20;;;13.40;99.90;;;;;;5055976;28;20249;-57
2022/10/25 06:14:01;;;;;;;19.60;14.10;;;13.40;99.90;;;;;;5052220;28;20223;-57
2022/10/25 06:16:31;;;;;;;20.73;14.10;;;13.40;99.90;;;;;;5052256;28;20230;-57
2022/10/25 06:18:59;;;;;;;20.67;14.27;;;13.40;99.90;;;;;;5053470;28;20720;-57
2022/10/25 06:21:29;;;;;;;19.50;14.30;;;13.40;99.90;;;;;;5080383;28;20227;-56
2022/10/25 06:23:58;;;;;;;19.90;14.53;;;13.40;99.90;;;;;;5090900;28;20290;-57
2022/10/25 06:26:28;;;;;;;23.23;15.20;;;13.40;99.90;;;;;;5092317;28;20660;-57
2022/10/25 06:28:58;;;;;;;19.87;15.83;;;13.30;99.90;;;;;;5092295;28;20643;-57
2022/10/25 06:31:28;;;;;;;22.23;15.90;;;13.40;99.90;;;;;;5091774;28;20253;-56
2022/10/25 06:33:58;;;;;;;20.87;15.70;;;13.40;99.90;;;;;;5090087;28;20682;-57
2022/10/25 06:36:26;;;;;;;21.47;16.00;;;13.40;99.90;;;;;;5071569;28;20243;-56
2022/10/25 06:38:54;;;;;;;21.53;15.53;;;13.40;99.90;;;;;;5072296;28;20238;-57
2022/10/25 06:41:25;;;;;;;21.60;16.23;;;13.40;99.90;;;;;;5071870;28;20235;-57
2022/10/25 06:43:53;;;;;;;22.37;16.23;;;13.40;99.90;;;;;;5071828;28;20238;-57
2022/10/25 06:46:22;;;;;;;20.13;15.73;;;13.40;99.90;;;;;;5071990;28;20229;-57
2022/10/25 06:48:52;;;;;;;22.67;17.30;;;13.40;99.90;;;;;;5074705;28;20624;-57
2022/10/25 06:51:22;;;;;;;21.10;16.00;;;13.40;99.90;;;;;;5074099;28;20236;-57
2022/10/25 06:53:53;;;;;;;21.60;16.60;;;13.40;99.90;;;;;;5085981;28;20686;-57
2022/10/25 06:56:22;;;;;;;21.83;16.77;;;13.40;99.90;;;;;;5075729;28;20688;-57
2022/10/25 06:58:50;;;;;;;26.37;17.93;;;13.40;99.90;;;;;;5075607;28;20227;-57
2022/10/25 07:01:20;;;;;;;22.70;16.57;;;13.40;99.90;;;;;;5074914;28;20245;-56
2022/10/25 07:03:49;;;;;;;20.43;16.30;;;13.40;99.90;;;;;;5075462;28;20308;-57
2022/10/25 07:06:21;;;;;;;21.83;17.00;;;13.40;99.90;;;;;;5075329;28;20221;-57
2022/10/25 07:08:53;;;;;;;22.87;17.03;;;13.50;99.90;;;;;;5075209;28;20276;-57
2022/10/25 07:11:22;;;;;;;23.63;17.57;;;13.50;99.90;;;;;;5075419;28;20226;-57
2022/10/25 07:13:50;;;;;;;26.33;17.30;;;13.50;99.90;;;;;;5075362;28;20245;-57
2022/10/25 07:16:20;;;;;;;21.80;16.33;;;13.50;99.90;;;;;;5075019;28;20234;-56
2022/10/25 07:18:48;;;;;;;23.30;17.87;;;13.50;99.90;;;;;;5074954;28;20237;-57
2022/10/25 07:21:19;;;;;;;24.00;17.73;;;13.50;99.90;;;;;;5083403;28;20227;-56
2022/10/25 07:23:48;;;;;;;20.20;16.20;;;13.50;99.90;;;;;;5092168;28;20231;-57
2022/10/25 07:26:20;;;;;;;24.07;16.80;;;13.60;99.90;;;;;;5095148;28;20222;-56
2022/10/25 07:28:49;;;;;;;24.00;16.57;;;13.60;99.90;;;;;;5095302;28;20734;-56
2022/10/25 07:31:20;;;;;;;21.17;16.37;;;13.60;99.90;;;;;;5094742;28;20242;-56
2022/10/25 07:33:49;;;;;;;21.33;16.60;;;13.60;99.90;;;;;;5095152;28;20700;-56
2022/10/25 07:36:17;;;;;;;21.63;16.03;;;13.60;99.90;;;;;;5094973;28;20240;-57
2022/10/25 07:38:45;;;;;;;21.43;16.17;;;13.60;99.90;;;;;;5095035;28;20753;-56
2022/10/25 07:41:13;;;;;;;19.73;15.77;;;13.60;99.90;;;;;;5094862;28;20247;-55
2022/10/25 07:43:43;;;;;;;23.80;17.07;;;13.70;99.90;;;;;;5094587;28;20291;-57
2022/10/25 07:46:11;;;;;;;19.30;15.93;;;13.70;99.90;;;;;;5094836;28;20217;-57
2022/10/25 07:48:39;;;;;;;23.03;16.27;;;13.70;99.90;;;;;;5094644;28;20295;-56
2022/10/25 07:51:10;;;;;;;20.10;15.90;;;13.80;99.90;;;;;;5084297;28;20573;-56
2022/10/25 07:53:38;;;;;;;17.30;15.03;;;13.80;99.90;;;;;;5090232;28;20685;-57
2022/10/25 07:56:07;;;;;;;22.90;16.47;;;13.80;99.90;;;;;;5094636;28;20221;-57
2022/10/25 07:58:35;;;;;;;20.57;15.13;;;13.90;99.90;;;;;;5094601;28;20225;-57
2022/10/25 08:01:07;;;;;;;20.93;16.10;;;14.00;99.90;;;;;;5094130;28;20248;-57
2022/10/25 08:03:35;;;;;;;23.20;15.57;;;14.10;99.90;;;;;;5094237;28;20685;-57
2022/10/25 08:06:04;;;;;;;21.90;14.67;;;14.20;99.90;;;;;;5094675;28;20295;-57
2022/10/25 08:08:32;;;;;;;21.60;14.33;;;14.30;99.90;;;;;;5072926;28;20629;-57
2022/10/25 08:11:06;;;;;;;17.70;13.80;;;14.40;99.90;;;;;;5054138;28;20227;-56
2022/10/25 08:13:35;;;;;;;20.60;14.33;;;14.50;99.90;;;;;;5054154;28;20223;-56
2022/10/25 08:16:06;;;;;;;19.47;13.90;;;14.50;99.90;;;;;;5054032;28;20223;-56
2022/10/25 08:18:35;;;;;;;20.60;13.87;;;14.60;99.90;;;;;;5054083;28;20632;-57
2022/10/25 08:21:03;;;;;;;22.13;13.90;;;14.60;99.90;;;;;;5079989;28;20226;-56
2022/10/25 08:23:32;;;;;;;16.13;12.50;;;14.60;99.90;;;;;;5088517;28;20233;-57
2022/10/25 08:26:01;;;;;;;16.20;11.53;;;14.60;99.90;;;;;;5094337;28;20233;-56
2022/10/25 08:28:29;;;;;;;14.37;11.47;;;14.70;99.90;;;;;;5094075;28;20229;-56
2022/10/25 08:30:59;;;;;;;15.80;10.97;;;14.80;99.90;;;;;;5093402;28;20268;-56
2022/10/25 08:33:30;;;;;;;16.27;11.63;;;14.80;99.90;;;;;;5093740;28;20693;-56
2022/10/25 08:36:00;;;;;;;13.57;10.13;;;14.80;99.90;;;;;;5093860;28;20254;-56
2022/10/25 08:38:29;;;;;;;15.17;10.73;;;14.80;99.90;;;;;;5093574;28;20214;-56
2022/10/25 08:41:05;;;;;;;15.33;10.83;;;14.80;99.90;;;;;;5094016;28;20227;-56
2022/10/25 08:43:52;;;;;;;14.67;10.43;;;14.80;99.90;;;;;;5093498;28;20226;-56
2022/10/25 08:46:23;;;;;;;14.43;9.33;;;14.90;99.90;;;;;;5093939;28;20739;-56
2022/10/25 08:49:00;;;;;;;12.40;9.57;;;14.90;99.90;;;;;;5093882;28;20244;-56
2022/10/25 08:51:33;;;;;;;13.07;8.80;;;14.90;99.90;;;;;;5075717;28;20613;-56
2022/10/25 08:54:05;;;;;;;16.50;9.33;;;14.90;99.90;;;;;;5089880;28;20681;-56
2022/10/25 08:56:34;;;;;;;16.70;9.60;;;14.90;99.90;;;;;;5093559;28;20227;-57
2022/10/25 08:59:19;;;;;;;15.20;9.47;;;14.90;99.90;;;;;;5093660;28;20737;-55
2022/10/25 09:01:53;;;;;;;13.00;8.40;;;14.90;99.90;;;;;;5092814;28;20231;-56
2022/10/25 09:04:23;;;;;;;13.60;7.90;;;15.00;99.90;;;;;;5093241;28;20226;-56
2022/10/25 09:07:00;;;;;;;13.23;7.60;;;15.10;99.90;;;;;;5093505;28;20670;-56
2022/10/25 09:09:34;;;;;;;12.23;7.73;;;15.10;99.90;;;;;;5093300;28;20276;-56
2022/10/25 09:12:17;;;;;;;11.90;7.70;;;15.20;99.90;;;;;;5093270;28;20214;-56
2022/10/25 09:14:51;;;;;;;14.43;8.17;;;15.20;99.90;;;;;;5092395;28;20235;-56
2022/10/25 09:17:21;;;;;;;13.40;7.70;;;15.20;99.90;;;;;;5093065;28;20226;-56
2022/10/25 09:20:03;;;;;;;12.70;6.83;;;15.30;99.90;;;;;;5085853;28;20635;-56
2022/10/25 09:22:37;;;;;;;13.60;7.40;;;15.50;99.90;;;;;;5084382;28;20700;-56
2022/10/25 09:25:14;;;;;;;12.37;7.00;;;15.70;99.90;;;;;;5093022;28;20263;-56
2022/10/25 09:27:51;;;;;;;11.87;6.30;;;15.90;99.90;;;;;;5093018;28;20233;-57
2022/10/25 09:30:20;;;;;;;12.30;6.70;;;16.00;99.90;;;;;;5092744;28;20693;-56
2022/10/25 09:32:52;;;;;;;15.83;6.43;;;16.00;99.90;;;;;;5092735;28;20238;-56
2022/10/25 09:35:26;;;;;;;10.30;5.63;;;15.90;99.90;;;;;;5092863;28;20215;-56
2022/10/25 09:38:00;;;;;;;12.07;6.23;;;15.80;99.90;;;;;;5092833;28;20233;-56
2022/10/25 09:40:33;;;;;;;12.40;6.33;;;15.70;99.90;;;;;;5092876;28;20233;-56
2022/10/25 09:43:06;;;;;;;11.40;5.83;;;15.70;99.90;;;;;;5092646;28;20225;-56
2022/10/25 09:45:47;;;;;;;17.77;6.20;;;15.60;99.90;;;;;;5092510;28;20222;-57
2022/10/25 09:48:20;;;;;;;12.17;6.50;;;15.50;99.90;;;;;;5092696;28;20229;-56
2022/10/25 09:50:55;;;;;;;11.30;6.20;;;15.60;99.90;;;;;;5084685;28;20222;-56
2022/10/25 09:53:23;;;;;;;10.40;5.77;;;15.90;99.90;;;;;;5086242;28;20704;-56
2022/10/25 09:55:53;;;;;;;11.83;5.50;;;16.30;99.90;;;;;;5092528;28;20230;-57
2022/10/25 09:58:23;;;;;;;11.20;4.57;;;16.40;99.90;;;;;;5092848;28;20235;-56
2022/10/25 10:00:54;;;;;;;10.17;5.23;;;16.50;99.90;;;;;;5092304;28;20245;-56
2022/10/25 10:03:23;;;;;;;12.90;5.27;;;16.30;99.90;;;;;;5092755;28;20640;-57
2022/10/25 10:05:55;;;;;;;12.37;5.30;;;16.20;99.90;;;;;;5092004;28;20268;-56
2022/10/25 10:08:24;;;;;;;11.10;5.10;;;16.10;99.90;;;;;;5069043;28;20234;-56
2022/10/25 10:10:54;;;;;;;9.70;5.30;;;16.00;99.90;;;;;;5072210;28;20702;-56
2022/10/25 10:13:29;;;;;;;9.70;4.83;;;16.00;99.90;;;;;;5072189;28;20683;-56
2022/10/25 10:15:59;;;;;;;10.40;5.17;;;15.90;99.90;;;;;;5072308;28;20233;-57
2022/10/25 10:18:30;;;;;;;10.07;4.70;;;16.00;99.90;;;;;;5072135;28;20223;-56
2022/10/25 10:21:07;;;;;;;10.87;5.10;;;16.00;99.90;;;;;;5073901;28;20227;-55
2022/10/25 10:23:45;;;;;;;10.23;4.63;;;16.00;99.90;;;;;;5076774;28;20709;-56
2022/10/25 10:26:23;;;;;;;9.43;4.60;;;16.10;99.90;;;;;;5072640;28;20226;-56
2022/10/25 10:29:00;;;;;;;11.37;5.07;;;16.30;99.90;;;;;;5075975;28;20310;-56
2022/10/25 10:31:37;;;;;;;9.40;4.70;;;16.40;99.90;;;;;;5075389;28;20234;-56
2022/10/25 10:34:19;;;;;;;11.27;5.00;;;16.40;99.90;;;;;;5076199;28;20229;-56
2022/10/25 10:37:00;;;;;;;11.37;4.97;;;16.40;99.90;;;;;;5075603;28;20250;-57
2022/10/25 10:39:28;;;;;;;9.77;5.20;;;16.50;99.90;;;;;;5075667;28;20225;-57
2022/10/25 10:42:02;;;;;;;7.37;4.33;;;16.80;99.90;;;;;;5075704;28;20227;-57
2022/10/25 10:44:33;;;;;;;10.07;4.80;;;17.00;99.90;;;;;;5075670;28;20246;-57
2022/10/25 10:47:09;;;;;;;9.90;4.70;;;17.30;99.90;;;;;;5075625;28;20269;-57
2022/10/25 10:49:39;;;;;;;7.60;4.23;;;17.30;99.90;;;;;;5075438;28;20661;-56
2022/10/25 10:52:29;;;;;;;8.73;4.57;;;17.20;99.90;;;;;;5083640;28;20218;-56
2022/10/25 10:54:58;;;;;;;8.10;3.83;;;17.00;99.90;;;;;;5075408;28;20211;-56
2022/10/25 10:57:31;;;;;;;8.67;3.63;;;16.90;99.90;;;;;;5075571;28;20691;-56
2022/10/25 11:00:00;;;;;;;6.23;3.20;;;17.20;99.90;;;;;;5075522;28;20226;-55
2022/10/25 11:02:37;;;;;;;7.23;3.60;;;17.30;99.90;;;;;;5091669;28;20231;-57
2022/10/25 11:05:23;;;;;;;8.33;3.60;;;17.50;99.90;;;;;;5095486;28;20234;-56
2022/10/25 11:07:58;;;;;;;5.83;3.40;;;17.50;99.90;;;;;;5095492;28;20230;-56
2022/10/25 11:10:28;;;;;;;10.10;3.60;;;17.80;99.90;;;;;;5095377;28;20222;-55
2022/10/25 11:13:12;;;;;;;8.83;3.63;;;17.90;99.90;;;;;;5095426;28;20223;-56
2022/10/25 11:16:03;;;;;;;6.80;3.07;;;17.90;99.90;;;;;;5095493;28;20276;-57
2022/10/25 11:18:45;;;;;;;8.43;3.80;;;17.70;99.90;;;;;;5095432;28;20233;-57
2022/10/25 11:21:24;;;;;;;6.80;3.57;;;17.40;99.90;;;;;;5084130;28;20219;-57
2022/10/25 11:24:05;;;;;;;10.70;3.80;;;17.30;99.90;;;;;;5093189;28;20226;-57
2022/10/25 11:26:45;;;;;;;10.07;3.53;;;17.10;99.90;;;;;;5094955;28;20237;-57
2022/10/25 11:29:24;;;;;;;5.67;3.17;;;17.00;99.90;;;;;;5095083;28;20279;-57
2022/10/25 11:32:00;;;;;;;7.07;3.00;;;17.20;99.90;;;;;;5094765;28;20238;-57
2022/10/25 11:34:40;;;;;;;8.43;2.93;;;17.30;99.90;;;;;;5094821;28;20226;-56
2022/10/25 11:37:17;;;;;;;8.37;3.00;;;17.30;99.90;;;;;;5094298;28;20250;-57
2022/10/25 11:39:56;;;;;;;5.47;2.77;;;17.10;99.90;;;;;;5094999;28;20231;-56
2022/10/25 11:42:52;;;;;;;6.03;2.87;;;16.90;99.90;;;;;;5095106;28;20234;-57
2022/10/25 11:45:35;;;;;;;10.03;2.77;;;16.90;99.90;;;;;;5094758;28;20226;-57
2022/10/25 11:48:20;;;;;;;5.87;2.80;;;17.20;99.90;;;;;;5095053;28;20284;-57
2022/10/25 11:50:57;;;;;;;6.00;2.57;;;17.40;99.90;;;;;;5086808;28;20234;-57
2022/10/25 11:53:38;;;;;;;9.30;2.93;;;17.70;99.90;;;;;;5088607;28;20690;-57
2022/10/25 11:56:15;;;;;;;6.57;3.00;;;18.00;99.90;;;;;;5094687;28;20625;-56
2022/10/25 11:58:52;;;;;;;11.97;3.60;;;18.00;99.90;;;;;;5094681;28;20234;-57
2022/10/25 12:01:34;;;;;;;9.17;2.80;;;17.90;99.90;;;;;;5094251;28;20234;-57
2022/10/25 12:04:23;;;;;;;9.47;2.80;;;17.80;99.90;;;;;;5094666;28;20675;-57
2022/10/25 12:07:03;;;;;;;7.33;2.80;;;17.60;99.90;;;;;;5094324;28;20318;-57
2022/10/25 12:09:40;;;;;;;7.63;2.77;;;17.40;99.90;;;;;;5094108;28;20243;-57
2022/10/25 12:12:12;;;;;;;7.27;2.70;;;17.40;99.90;;;;;;5061580;28;20242;-57
2022/10/25 12:14:43;;;;;;;7.57;2.60;;;17.40;99.90;;;;;;5054155;28;20227;-57
2022/10/25 12:17:21;;;;;;;6.20;2.70;;;17.30;99.90;;;;;;5054023;28;20220;-56
2022/10/25 12:19:51;;;;;;;6.20;2.43;;;17.30;99.90;;;;;;5061443;28;20230;-56
2022/10/25 12:22:24;;;;;;;6.50;2.40;;;17.40;99.90;;;;;;5082081;28;20227;-57
2022/10/25 12:24:57;;;;;;;8.97;2.73;;;17.50;99.90;;;;;;5073666;28;20239;-56
2022/10/25 12:27:29;;;;;;;8.87;2.70;;;17.40;99.90;;;;;;5073553;28;20219;-55
2022/10/25 12:30:02;;;;;;;9.43;2.20;;;17.40;99.90;;;;;;5074002;28;20230;-56
2022/10/25 12:32:35;;;;;;;8.97;3.07;;;17.30;99.90;;;;;;5072952;28;20231;-57
2022/10/25 12:35:13;;;;;;;6.10;2.40;;;17.30;99.90;;;;;;5073605;28;20233;-57
2022/10/25 12:37:46;;;;;;;7.23;2.50;;;17.20;99.90;;;;;;5073209;28;20707;-57
2022/10/25 12:40:20;;;;;;;10.23;2.60;;;17.10;99.90;;;;;;5073533;28;20623;-56
2022/10/25 12:42:52;;;;;;;5.53;2.27;;;17.10;99.90;;;;;;5073572;28;20679;-57
2022/10/25 12:45:55;;;;;;;7.07;2.87;;;17.10;99.90;;;;;;5073199;28;20257;-57
2022/10/25 12:49:02;;;;;;;8.10;2.20;;;17.00;99.90;;;;;;5073036;28;20701;-57
2022/10/25 12:51:45;;;;;;;7.57;2.80;;;17.00;99.90;;;;;;5075927;28;20227;-57
2022/10/25 12:54:40;;;;;;;10.73;2.87;;;17.00;99.90;;;;;;5053778;28;20231;-57
2022/10/25 12:57:19;;;;;;;8.43;2.47;;;17.00;99.90;;;;;;5053241;28;20224;-57
2022/10/25 13:00:03;;;;;;;4.93;2.37;;;16.90;99.90;;;;;;5053288;28;20228;-57
2022/10/25 13:03:16;;;;;;;7.00;2.70;;;17.00;99.90;;;;;;5052520;28;20234;-57